Terminal Aerodrome Forecast
Issued by NWS

Home | Current Version | Previous Version | Text Only | Print | Product List | Glossary On
Versions: 1 2 3 4 5 6 7 8 9 10 11 12 13
000
FTUS44 KLZK 021700
TAFLIT
TAF
KLIT 021736Z 0218/0318 23010G20KT P6SM SCT040 BKN250
     FM030100 23008KT P6SM SCT040 BKN250
     FM030500 27005KT P6SM VCTS SCT030CB BKN060
     FM031400 24010G20KT P6SM VCTS BKN025CB OVC050=

USA.gov is the U.S. government's official web portal to all federal, state and local government web resources and services.